YAYE/AYQ METAR and TAF weather

Enter ICAO airport designator
Station Type Date Time Source
YAYE METAR 2022/01/27 23:00 UTC NOAA

YAYE 272300Z AUTO 18007KT //// // NCD 26/23 Q1009


Station Type Date Time Source
YAYE Decoded METAR 2022/01/27 23:00 UTC NOAA

Ayers Rock, Australia (YAYE) 25-11S 130-58E
Jan 27, 2022 - 06:00 PM EST / 2022.01.27 2300 UTC
Wind: from the S (180 degrees) at 8 MPH (7 KT):0
Temperature: 78 F (26 C)
Dew Point: 73 F (23 C)
Relative Humidity: 83%
Pressure (altimeter): 29.80 in. Hg (1009 hPa)
ob: YAYE 272300Z AUTO 18007KT //// // NCD 26/23 Q1009
cycle: 23

Station Type Date Time Source
YAYE TAF UTC NOAA

Error!

Example: see airport list